sensor_id;sensor_type;location;lat;lon;timestamp;P1;durP1;ratioP1;P2;durP2;ratioP2
78120;SDS011;67585;44.802;10.332;2023-04-06T00:00:12;5.40;;;1.10;;
78120;SDS011;67585;44.802;10.332;2023-04-06T00:05:04;4.43;;;0.90;;
78120;SDS011;67585;44.802;10.332;2023-04-06T00:07:30;3.00;;;0.65;;
78120;SDS011;67585;44.802;10.332;2023-04-06T00:12:23;3.10;;;1.57;;
78120;SDS011;67585;44.802;10.332;2023-04-06T00:14:48;4.22;;;1.08;;
78120;SDS011;67585;44.802;10.332;2023-04-06T00:17:14;3.42;;;0.82;;
78120;SDS011;67585;44.802;10.332;2023-04-06T00:19:40;6.35;;;1.48;;
78120;SDS011;67585;44.802;10.332;2023-04-06T00:22:05;7.00;;;1.58;;
78120;SDS011;67585;44.802;10.332;2023-04-06T00:24:30;7.35;;;2.00;;
78120;SDS011;67585;44.802;10.332;2023-04-06T00:26:56;6.53;;;1.27;;
78120;SDS011;67585;44.802;10.332;2023-04-06T00:29:21;9.40;;;2.25;;
78120;SDS011;67585;44.802;10.332;2023-04-06T00:31:47;7.57;;;3.22;;
78120;SDS011;67585;44.802;10.332;2023-04-06T00:34:12;5.75;;;1.98;;
78120;SDS011;67585;44.802;10.332;2023-04-06T00:36:39;6.18;;;1.63;;
78120;SDS011;67585;44.802;10.332;2023-04-06T00:39:05;7.80;;;1.30;;
78120;SDS011;67585;44.802;10.332;2023-04-06T00:41:31;7.55;;;1.88;;
78120;SDS011;67585;44.802;10.332;2023-04-06T00:43:56;5.55;;;1.98;;
78120;SDS011;67585;44.802;10.332;2023-04-06T00:46:22;9.60;;;2.00;;
78120;SDS011;67585;44.802;10.332;2023-04-06T00:48:47;4.65;;;1.45;;
78120;SDS011;67585;44.802;10.332;2023-04-06T00:51:13;6.88;;;3.17;;
78120;SDS011;67585;44.802;10.332;2023-04-06T00:53:38;5.68;;;1.05;;
78120;SDS011;67585;44.802;10.332;2023-04-06T00:56:04;6.30;;;1.25;;
78120;SDS011;67585;44.802;10.332;2023-04-06T00:58:30;5.18;;;1.35;;
78120;SDS011;67585;44.802;10.332;2023-04-06T01:00:55;4.88;;;1.02;;
78120;SDS011;67585;44.802;10.332;2023-04-06T01:03:21;2.90;;;0.80;;
78120;SDS011;67585;44.802;10.332;2023-04-06T01:05:47;3.90;;;1.27;;
78120;SDS011;67585;44.802;10.332;2023-04-06T01:08:12;3.72;;;0.90;;
78120;SDS011;67585;44.802;10.332;2023-04-06T01:10:38;4.72;;;1.42;;
78120;SDS011;67585;44.802;10.332;2023-04-06T01:13:03;4.85;;;0.90;;
78120;SDS011;67585;44.802;10.332;2023-04-06T01:15:29;7.70;;;1.63;;
78120;SDS011;67585;44.802;10.332;2023-04-06T01:17:55;5.88;;;0.82;;
78120;SDS011;67585;44.802;10.332;2023-04-06T01:20:20;3.83;;;0.63;;
78120;SDS011;67585;44.802;10.332;2023-04-06T01:22:46;3.42;;;1.00;;
78120;SDS011;67585;44.802;10.332;2023-04-06T01:25:11;3.42;;;0.88;;
78120;SDS011;67585;44.802;10.332;2023-04-06T01:27:37;3.97;;;0.43;;
78120;SDS011;67585;44.802;10.332;2023-04-06T01:30:02;1.98;;;0.38;;
78120;SDS011;67585;44.802;10.332;2023-04-06T01:32:28;2.05;;;0.30;;
78120;SDS011;67585;44.802;10.332;2023-04-06T01:34:53;2.25;;;0.82;;
78120;SDS011;67585;44.802;10.332;2023-04-06T01:37:19;2.38;;;0.47;;
78120;SDS011;67585;44.802;10.332;2023-04-06T01:39:45;7.18;;;0.52;;
78120;SDS011;67585;44.802;10.332;2023-04-06T01:42:11;2.40;;;0.60;;
78120;SDS011;67585;44.802;10.332;2023-04-06T01:44:36;3.50;;;0.93;;
78120;SDS011;67585;44.802;10.332;2023-04-06T01:47:02;3.38;;;0.30;;
78120;SDS011;67585;44.802;10.332;2023-04-06T01:49:27;2.88;;;1.20;;
78120;SDS011;67585;44.802;10.332;2023-04-06T01:51:53;3.25;;;0.20;;
78120;SDS011;67585;44.802;10.332;2023-04-06T01:54:19;1.35;;;0.32;;
78120;SDS011;67585;44.802;10.332;2023-04-06T01:56:45;3.47;;;0.65;;
78120;SDS011;67585;44.802;10.332;2023-04-06T01:59:10;3.17;;;0.38;;
78120;SDS011;67585;44.802;10.332;2023-04-06T02:01:36;3.65;;;0.73;;
78120;SDS011;67585;44.802;10.332;2023-04-06T02:04:01;4.97;;;1.25;;
78120;SDS011;67585;44.802;10.332;2023-04-06T02:06:26;2.60;;;0.55;;
78120;SDS011;67585;44.802;10.332;2023-04-06T02:08:52;3.55;;;0.88;;
78120;SDS011;67585;44.802;10.332;2023-04-06T02:11:18;3.63;;;0.60;;
78120;SDS011;67585;44.802;10.332;2023-04-06T02:13:43;3.25;;;1.13;;
78120;SDS011;67585;44.802;10.332;2023-04-06T02:16:08;5.63;;;0.68;;
78120;SDS011;67585;44.802;10.332;2023-04-06T02:18:34;3.78;;;0.65;;
78120;SDS011;67585;44.802;10.332;2023-04-06T02:20:59;3.15;;;1.45;;
78120;SDS011;67585;44.802;10.332;2023-04-06T02:23:25;3.80;;;0.55;;
78120;SDS011;67585;44.802;10.332;2023-04-06T02:25:51;6.03;;;1.00;;
78120;SDS011;67585;44.802;10.332;2023-04-06T02:28:17;5.22;;;0.95;;
78120;SDS011;67585;44.802;10.332;2023-04-06T02:30:42;3.60;;;0.65;;
78120;SDS011;67585;44.802;10.332;2023-04-06T02:33:08;5.28;;;1.17;;
78120;SDS011;67585;44.802;10.332;2023-04-06T02:35:33;6.93;;;0.85;;
78120;SDS011;67585;44.802;10.332;2023-04-06T02:37:59;2.85;;;0.63;;
78120;SDS011;67585;44.802;10.332;2023-04-06T02:40:24;4.78;;;1.60;;
78120;SDS011;67585;44.802;10.332;2023-04-06T02:42:50;10.02;;;1.67;;
78120;SDS011;67585;44.802;10.332;2023-04-06T02:45:15;4.40;;;0.77;;
78120;SDS011;67585;44.802;10.332;2023-04-06T02:47:41;6.60;;;1.33;;
78120;SDS011;67585;44.802;10.332;2023-04-06T02:50:07;5.85;;;2.70;;
78120;SDS011;67585;44.802;10.332;2023-04-06T02:52:33;6.70;;;1.77;;
78120;SDS011;67585;44.802;10.332;2023-04-06T02:54:58;4.90;;;1.88;;
78120;SDS011;67585;44.802;10.332;2023-04-06T02:57:23;8.68;;;1.85;;
78120;SDS011;67585;44.802;10.332;2023-04-06T02:59:49;5.75;;;1.85;;
78120;SDS011;67585;44.802;10.332;2023-04-06T03:02:14;7.10;;;2.05;;
78120;SDS011;67585;44.802;10.332;2023-04-06T03:04:40;8.85;;;1.42;;
78120;SDS011;67585;44.802;10.332;2023-04-06T03:07:05;8.25;;;1.85;;
78120;SDS011;67585;44.802;10.332;2023-04-06T03:09:30;6.03;;;1.65;;
78120;SDS011;67585;44.802;10.332;2023-04-06T03:11:56;4.70;;;1.33;;
78120;SDS011;67585;44.802;10.332;2023-04-06T03:14:22;5.32;;;1.65;;
78120;SDS011;67585;44.802;10.332;2023-04-06T03:16:48;6.80;;;2.10;;
78120;SDS011;67585;44.802;10.332;2023-04-06T03:19:14;6.90;;;1.63;;
78120;SDS011;67585;44.802;10.332;2023-04-06T03:21:39;4.15;;;0.95;;
78120;SDS011;67585;44.802;10.332;2023-04-06T03:24:05;5.32;;;1.20;;
78120;SDS011;67585;44.802;10.332;2023-04-06T03:26:31;5.32;;;0.93;;
78120;SDS011;67585;44.802;10.332;2023-04-06T03:28:56;5.32;;;1.52;;
78120;SDS011;67585;44.802;10.332;2023-04-06T03:31:21;5.80;;;2.33;;
78120;SDS011;67585;44.802;10.332;2023-04-06T03:33:47;5.53;;;1.52;;
78120;SDS011;67585;44.802;10.332;2023-04-06T03:36:12;5.90;;;1.42;;
78120;SDS011;67585;44.802;10.332;2023-04-06T03:38:38;5.95;;;1.13;;
78120;SDS011;67585;44.802;10.332;2023-04-06T03:41:03;4.53;;;1.92;;
78120;SDS011;67585;44.802;10.332;2023-04-06T03:43:28;6.07;;;1.65;;
78120;SDS011;67585;44.802;10.332;2023-04-06T03:45:54;4.65;;;1.10;;
78120;SDS011;67585;44.802;10.332;2023-04-06T03:48:20;4.15;;;1.27;;
78120;SDS011;67585;44.802;10.332;2023-04-06T03:50:45;5.13;;;1.25;;
78120;SDS011;67585;44.802;10.332;2023-04-06T03:53:10;7.70;;;1.75;;
78120;SDS011;67585;44.802;10.332;2023-04-06T03:55:36;6.75;;;1.50;;
78120;SDS011;67585;44.802;10.332;2023-04-06T03:58:01;4.70;;;1.38;;
78120;SDS011;67585;44.802;10.332;2023-04-06T04:00:27;5.65;;;1.13;;
78120;SDS011;67585;44.802;10.332;2023-04-06T04:02:52;4.78;;;1.42;;
78120;SDS011;67585;44.802;10.332;2023-04-06T04:05:18;5.72;;;0.50;;
78120;SDS011;67585;44.802;10.332;2023-04-06T04:07:43;4.32;;;0.88;;
78120;SDS011;67585;44.802;10.332;2023-04-06T04:10:09;2.97;;;0.75;;
78120;SDS011;67585;44.802;10.332;2023-04-06T04:12:34;3.10;;;1.02;;
78120;SDS011;67585;44.802;10.332;2023-04-06T04:15:00;3.10;;;0.63;;
78120;SDS011;67585;44.802;10.332;2023-04-06T04:17:25;3.22;;;0.60;;
78120;SDS011;67585;44.802;10.332;2023-04-06T04:19:51;2.95;;;0.40;;
78120;SDS011;67585;44.802;10.332;2023-04-06T04:22:16;3.30;;;0.50;;
78120;SDS011;67585;44.802;10.332;2023-04-06T04:24:41;1.60;;;0.15;;
78120;SDS011;67585;44.802;10.332;2023-04-06T04:27:07;2.72;;;0.47;;
78120;SDS011;67585;44.802;10.332;2023-04-06T04:29:32;3.42;;;0.63;;
78120;SDS011;67585;44.802;10.332;2023-04-06T04:31:57;3.35;;;0.32;;
78120;SDS011;67585;44.802;10.332;2023-04-06T04:34:23;2.38;;;0.20;;
78120;SDS011;67585;44.802;10.332;2023-04-06T04:36:54;1.92;;;0.30;;
78120;SDS011;67585;44.802;10.332;2023-04-06T04:39:19;3.25;;;0.43;;
78120;SDS011;67585;44.802;10.332;2023-04-06T04:41:45;2.40;;;0.15;;
78120;SDS011;67585;44.802;10.332;2023-04-06T04:44:10;1.67;;;0.50;;
78120;SDS011;67585;44.802;10.332;2023-04-06T04:46:36;2.40;;;0.38;;
78120;SDS011;67585;44.802;10.332;2023-04-06T04:49:01;1.88;;;0.30;;
78120;SDS011;67585;44.802;10.332;2023-04-06T04:51:26;4.28;;;0.43;;
78120;SDS011;67585;44.802;10.332;2023-04-06T04:53:52;2.42;;;0.20;;
78120;SDS011;67585;44.802;10.332;2023-04-06T04:56:17;2.67;;;0.50;;
78120;SDS011;67585;44.802;10.332;2023-04-06T04:58:43;3.28;;;0.25;;
78120;SDS011;67585;44.802;10.332;2023-04-06T05:01:08;3.88;;;0.52;;
78120;SDS011;67585;44.802;10.332;2023-04-06T05:03:34;1.55;;;0.10;;
78120;SDS011;67585;44.802;10.332;2023-04-06T05:06:00;1.88;;;0.15;;
78120;SDS011;67585;44.802;10.332;2023-04-06T05:08:26;1.25;;;0.20;;
78120;SDS011;67585;44.802;10.332;2023-04-06T05:10:52;2.42;;;1.02;;
78120;SDS011;67585;44.802;10.332;2023-04-06T05:13:17;1.83;;;0.10;;
78120;SDS011;67585;44.802;10.332;2023-04-06T05:15:43;1.42;;;0.10;;
78120;SDS011;67585;44.802;10.332;2023-04-06T05:18:09;1.95;;;0.35;;
78120;SDS011;67585;44.802;10.332;2023-04-06T05:20:35;1.90;;;0.68;;
78120;SDS011;67585;44.802;10.332;2023-04-06T05:23:01;3.17;;;0.30;;
78120;SDS011;67585;44.802;10.332;2023-04-06T05:25:26;2.25;;;0.17;;
78120;SDS011;67585;44.802;10.332;2023-04-06T05:27:52;2.22;;;0.10;;
78120;SDS011;67585;44.802;10.332;2023-04-06T05:30:18;2.72;;;0.43;;
78120;SDS011;67585;44.802;10.332;2023-04-06T05:32:44;3.65;;;0.88;;
78120;SDS011;67585;44.802;10.332;2023-04-06T05:35:10;3.42;;;0.80;;
78120;SDS011;67585;44.802;10.332;2023-04-06T05:37:36;2.22;;;0.22;;
78120;SDS011;67585;44.802;10.332;2023-04-06T05:40:02;2.25;;;0.10;;
78120;SDS011;67585;44.802;10.332;2023-04-06T05:42:35;2.25;;;0.50;;
78120;SDS011;67585;44.802;10.332;2023-04-06T05:45:05;6.43;;;0.35;;
78120;SDS011;67585;44.802;10.332;2023-04-06T05:47:31;3.45;;;0.30;;
78120;SDS011;67585;44.802;10.332;2023-04-06T05:49:56;3.42;;;0.60;;
78120;SDS011;67585;44.802;10.332;2023-04-06T05:52:22;5.60;;;0.40;;
78120;SDS011;67585;44.802;10.332;2023-04-06T05:54:47;3.47;;;0.43;;
78120;SDS011;67585;44.802;10.332;2023-04-06T05:57:12;4.22;;;0.52;;
78120;SDS011;67585;44.802;10.332;2023-04-06T05:59:38;6.18;;;1.13;;
78120;SDS011;67585;44.802;10.332;2023-04-06T06:02:03;5.68;;;0.98;;
78120;SDS011;67585;44.802;10.332;2023-04-06T06:04:30;5.90;;;1.60;;
78120;SDS011;67585;44.802;10.332;2023-04-06T06:06:56;2.90;;;1.15;;
78120;SDS011;67585;44.802;10.332;2023-04-06T06:09:21;4.53;;;0.90;;
78120;SDS011;67585;44.802;10.332;2023-04-06T06:11:46;7.82;;;1.25;;
78120;SDS011;67585;44.802;10.332;2023-04-06T06:14:12;7.53;;;0.80;;
78120;SDS011;67585;44.802;10.332;2023-04-06T06:16:37;3.70;;;1.10;;
78120;SDS011;67585;44.802;10.332;2023-04-06T06:19:03;3.95;;;0.70;;
78120;SDS011;67585;44.802;10.332;2023-04-06T06:21:28;3.75;;;1.02;;
78120;SDS011;67585;44.802;10.332;2023-04-06T06:23:53;4.15;;;0.95;;
78120;SDS011;67585;44.802;10.332;2023-04-06T06:26:19;7.57;;;1.35;;
78120;SDS011;67585;44.802;10.332;2023-04-06T06:28:45;4.22;;;0.93;;
78120;SDS011;67585;44.802;10.332;2023-04-06T06:31:10;5.10;;;1.02;;
78120;SDS011;67585;44.802;10.332;2023-04-06T06:33:36;5.80;;;1.13;;
78120;SDS011;67585;44.802;10.332;2023-04-06T06:36:01;5.63;;;1.13;;
78120;SDS011;67585;44.802;10.332;2023-04-06T06:38:26;4.68;;;0.98;;
78120;SDS011;67585;44.802;10.332;2023-04-06T06:40:52;7.07;;;1.60;;
78120;SDS011;67585;44.802;10.332;2023-04-06T06:43:18;5.20;;;1.30;;
78120;SDS011;67585;44.802;10.332;2023-04-06T06:45:43;7.70;;;0.63;;
78120;SDS011;67585;44.802;10.332;2023-04-06T06:48:09;4.28;;;0.95;;
78120;SDS011;67585;44.802;10.332;2023-04-06T06:50:34;5.18;;;1.42;;
78120;SDS011;67585;44.802;10.332;2023-04-06T06:53:00;3.83;;;1.42;;
78120;SDS011;67585;44.802;10.332;2023-04-06T06:55:25;6.40;;;1.20;;
78120;SDS011;67585;44.802;10.332;2023-04-06T06:57:52;7.53;;;1.95;;
78120;SDS011;67585;44.802;10.332;2023-04-06T07:00:17;3.40;;;1.20;;
78120;SDS011;67585;44.802;10.332;2023-04-06T07:02:45;6.53;;;0.93;;
78120;SDS011;67585;44.802;10.332;2023-04-06T07:05:12;6.47;;;1.33;;
78120;SDS011;67585;44.802;10.332;2023-04-06T07:07:37;6.97;;;1.65;;
78120;SDS011;67585;44.802;10.332;2023-04-06T07:10:03;6.05;;;1.85;;
78120;SDS011;67585;44.802;10.332;2023-04-06T07:12:28;6.55;;;1.30;;
78120;SDS011;67585;44.802;10.332;2023-04-06T07:14:54;4.75;;;1.17;;
78120;SDS011;67585;44.802;10.332;2023-04-06T07:17:19;5.78;;;1.48;;
78120;SDS011;67585;44.802;10.332;2023-04-06T07:19:45;3.95;;;1.27;;
78120;SDS011;67585;44.802;10.332;2023-04-06T07:22:11;5.38;;;1.45;;
78120;SDS011;67585;44.802;10.332;2023-04-06T07:24:37;5.65;;;2.05;;
78120;SDS011;67585;44.802;10.332;2023-04-06T07:27:02;4.30;;;0.85;;
78120;SDS011;67585;44.802;10.332;2023-04-06T07:29:28;4.47;;;1.35;;
78120;SDS011;67585;44.802;10.332;2023-04-06T07:31:54;7.55;;;1.60;;
78120;SDS011;67585;44.802;10.332;2023-04-06T07:34:20;5.28;;;1.77;;
78120;SDS011;67585;44.802;10.332;2023-04-06T07:36:45;6.38;;;1.35;;
78120;SDS011;67585;44.802;10.332;2023-04-06T07:39:11;5.78;;;1.35;;
78120;SDS011;67585;44.802;10.332;2023-04-06T07:41:36;8.38;;;1.23;;
78120;SDS011;67585;44.802;10.332;2023-04-06T07:44:02;7.53;;;2.13;;
78120;SDS011;67585;44.802;10.332;2023-04-06T07:46:28;7.00;;;1.92;;
78120;SDS011;67585;44.802;10.332;2023-04-06T07:48:54;4.55;;;1.65;;
78120;SDS011;67585;44.802;10.332;2023-04-06T07:51:19;4.57;;;1.17;;
78120;SDS011;67585;44.802;10.332;2023-04-06T07:53:45;4.68;;;1.85;;
78120;SDS011;67585;44.802;10.332;2023-04-06T07:56:10;7.32;;;1.58;;
78120;SDS011;67585;44.802;10.332;2023-04-06T07:58:37;5.45;;;1.42;;
78120;SDS011;67585;44.802;10.332;2023-04-06T08:01:02;7.75;;;1.92;;
78120;SDS011;67585;44.802;10.332;2023-04-06T08:03:28;7.57;;;1.88;;
78120;SDS011;67585;44.802;10.332;2023-04-06T08:05:54;9.15;;;2.17;;
78120;SDS011;67585;44.802;10.332;2023-04-06T08:08:20;8.30;;;1.75;;
78120;SDS011;67585;44.802;10.332;2023-04-06T08:10:46;6.70;;;2.45;;
78120;SDS011;67585;44.802;10.332;2023-04-06T08:13:13;5.90;;;1.73;;
78120;SDS011;67585;44.802;10.332;2023-04-06T08:15:38;6.30;;;1.52;;
78120;SDS011;67585;44.802;10.332;2023-04-06T08:18:04;6.50;;;2.03;;
78120;SDS011;67585;44.802;10.332;2023-04-06T08:20:30;9.88;;;2.38;;
78120;SDS011;67585;44.802;10.332;2023-04-06T08:22:55;7.57;;;1.52;;
78120;SDS011;67585;44.802;10.332;2023-04-06T08:25:21;3.85;;;1.10;;
78120;SDS011;67585;44.802;10.332;2023-04-06T08:27:46;5.22;;;1.70;;
78120;SDS011;67585;44.802;10.332;2023-04-06T08:30:11;4.68;;;1.27;;
78120;SDS011;67585;44.802;10.332;2023-04-06T08:32:37;4.00;;;1.20;;
78120;SDS011;67585;44.802;10.332;2023-04-06T08:35:02;4.43;;;0.80;;
78120;SDS011;67585;44.802;10.332;2023-04-06T08:37:28;4.82;;;1.02;;
78120;SDS011;67585;44.802;10.332;2023-04-06T08:39:53;7.60;;;0.90;;
78120;SDS011;67585;44.802;10.332;2023-04-06T08:42:20;5.82;;;1.42;;
78120;SDS011;67585;44.802;10.332;2023-04-06T08:44:47;3.03;;;0.20;;
78120;SDS011;67585;44.802;10.332;2023-04-06T08:47:15;4.90;;;0.98;;
78120;SDS011;67585;44.802;10.332;2023-04-06T08:49:40;2.97;;;0.47;;
78120;SDS011;67585;44.802;10.332;2023-04-06T08:52:09;2.75;;;0.52;;
78120;SDS011;67585;44.802;10.332;2023-04-06T08:54:35;2.72;;;0.80;;
78120;SDS011;67585;44.802;10.332;2023-04-06T08:57:01;3.22;;;0.77;;
78120;SDS011;67585;44.802;10.332;2023-04-06T08:59:27;7.68;;;0.60;;
78120;SDS011;67585;44.802;10.332;2023-04-06T09:01:53;2.72;;;0.25;;
78120;SDS011;67585;44.802;10.332;2023-04-06T09:04:20;7.05;;;0.73;;
78120;SDS011;67585;44.802;10.332;2023-04-06T09:06:46;5.50;;;0.57;;
78120;SDS011;67585;44.802;10.332;2023-04-06T09:09:11;3.80;;;0.57;;
78120;SDS011;67585;44.802;10.332;2023-04-06T09:11:43;6.55;;;1.05;;
78120;SDS011;67585;44.802;10.332;2023-04-06T09:14:13;1.80;;;0.50;;
78120;SDS011;67585;44.802;10.332;2023-04-06T09:16:40;3.00;;;0.43;;
78120;SDS011;67585;44.802;10.332;2023-04-06T09:21:33;3.85;;;0.50;;
78120;SDS011;67585;44.802;10.332;2023-04-06T09:23:59;3.08;;;0.43;;
78120;SDS011;67585;44.802;10.332;2023-04-06T09:26:25;3.17;;;0.20;;
78120;SDS011;67585;44.802;10.332;2023-04-06T09:28:53;2.08;;;0.22;;
78120;SDS011;67585;44.802;10.332;2023-04-06T09:31:30;2.40;;;0.70;;
78120;SDS011;67585;44.802;10.332;2023-04-06T09:33:58;4.25;;;0.43;;
78120;SDS011;67585;44.802;10.332;2023-04-06T09:36:31;1.77;;;0.32;;
78120;SDS011;67585;44.802;10.332;2023-04-06T09:38:58;2.13;;;0.20;;
78120;SDS011;67585;44.802;10.332;2023-04-06T09:41:32;3.47;;;0.70;;
78120;SDS011;67585;44.802;10.332;2023-04-06T09:44:03;4.70;;;0.45;;
78120;SDS011;67585;44.802;10.332;2023-04-06T09:46:33;1.52;;;0.13;;
78120;SDS011;67585;44.802;10.332;2023-04-06T09:49:02;3.25;;;0.63;;
78120;SDS011;67585;44.802;10.332;2023-04-06T09:51:30;2.33;;;0.32;;
78120;SDS011;67585;44.802;10.332;2023-04-06T09:54:01;2.90;;;0.65;;
78120;SDS011;67585;44.802;10.332;2023-04-06T09:56:28;4.20;;;0.77;;
78120;SDS011;67585;44.802;10.332;2023-04-06T09:59:01;2.40;;;0.60;;
78120;SDS011;67585;44.802;10.332;2023-04-06T10:01:30;2.15;;;0.82;;
78120;SDS011;67585;44.802;10.332;2023-04-06T10:07:01;1.88;;;0.22;;
78120;SDS011;67585;44.802;10.332;2023-04-06T10:09:28;2.08;;;0.52;;
78120;SDS011;67585;44.802;10.332;2023-04-06T10:12:00;3.70;;;0.32;;
78120;SDS011;67585;44.802;10.332;2023-04-06T10:14:35;2.80;;;1.40;;
78120;SDS011;67585;44.802;10.332;2023-04-06T10:17:02;3.60;;;0.77;;
78120;SDS011;67585;44.802;10.332;2023-04-06T10:19:36;3.00;;;0.47;;
78120;SDS011;67585;44.802;10.332;2023-04-06T10:24:36;2.85;;;0.80;;
78120;SDS011;67585;44.802;10.332;2023-04-06T10:27:02;6.28;;;0.82;;
78120;SDS011;67585;44.802;10.332;2023-04-06T10:29:33;3.67;;;0.30;;
78120;SDS011;67585;44.802;10.332;2023-04-06T10:32:08;2.50;;;0.50;;
78120;SDS011;67585;44.802;10.332;2023-04-06T10:34:36;3.03;;;0.60;;
78120;SDS011;67585;44.802;10.332;2023-04-06T10:37:14;3.25;;;0.50;;
78120;SDS011;67585;44.802;10.332;2023-04-06T10:39:47;2.95;;;0.50;;
78120;SDS011;67585;44.802;10.332;2023-04-06T10:42:23;2.25;;;0.50;;
78120;SDS011;67585;44.802;10.332;2023-04-06T10:44:49;3.65;;;0.73;;
78120;SDS011;67585;44.802;10.332;2023-04-06T10:47:15;3.35;;;1.25;;
78120;SDS011;67585;44.802;10.332;2023-04-06T10:49:44;4.00;;;0.82;;
78120;SDS011;67585;44.802;10.332;2023-04-06T10:52:10;4.20;;;0.43;;
78120;SDS011;67585;44.802;10.332;2023-04-06T10:54:36;2.83;;;0.50;;
78120;SDS011;67585;44.802;10.332;2023-04-06T10:57:07;3.28;;;0.57;;
78120;SDS011;67585;44.802;10.332;2023-04-06T10:59:32;3.10;;;0.85;;
78120;SDS011;67585;44.802;10.332;2023-04-06T11:01:57;4.43;;;0.85;;
78120;SDS011;67585;44.802;10.332;2023-04-06T11:04:24;2.72;;;0.30;;
78120;SDS011;67585;44.802;10.332;2023-04-06T11:06:50;3.25;;;1.85;;
78120;SDS011;67585;44.802;10.332;2023-04-06T11:11:51;4.05;;;0.80;;
78120;SDS011;67585;44.802;10.332;2023-04-06T11:14:17;2.75;;;0.38;;
78120;SDS011;67585;44.802;10.332;2023-04-06T11:16:43;3.97;;;0.90;;
78120;SDS011;67585;44.802;10.332;2023-04-06T11:19:11;4.38;;;0.95;;
78120;SDS011;67585;44.802;10.332;2023-04-06T11:24:15;4.18;;;0.80;;
78120;SDS011;67585;44.802;10.332;2023-04-06T11:26:47;5.90;;;1.45;;
78120;SDS011;67585;44.802;10.332;2023-04-06T11:29:19;5.40;;;1.08;;
78120;SDS011;67585;44.802;10.332;2023-04-06T11:32:05;8.48;;;0.90;;
78120;SDS011;67585;44.802;10.332;2023-04-06T11:34:35;3.85;;;1.15;;
78120;SDS011;67585;44.802;10.332;2023-04-06T11:37:06;3.63;;;1.13;;
78120;SDS011;67585;44.802;10.332;2023-04-06T11:39:42;4.72;;;1.33;;
78120;SDS011;67585;44.802;10.332;2023-04-06T11:42:12;5.22;;;1.30;;
78120;SDS011;67585;44.802;10.332;2023-04-06T11:44:45;4.15;;;1.55;;
78120;SDS011;67585;44.802;10.332;2023-04-06T11:47:11;5.20;;;1.15;;
78120;SDS011;67585;44.802;10.332;2023-04-06T11:49:37;3.85;;;1.08;;
78120;SDS011;67585;44.802;10.332;2023-04-06T11:52:13;4.43;;;1.63;;
78120;SDS011;67585;44.802;10.332;2023-04-06T11:57:15;10.15;;;1.60;;
78120;SDS011;67585;44.802;10.332;2023-04-06T11:59:42;5.25;;;1.50;;
78120;SDS011;67585;44.802;10.332;2023-04-06T12:02:08;5.32;;;1.80;;
78120;SDS011;67585;44.802;10.332;2023-04-06T12:04:34;4.75;;;1.83;;
78120;SDS011;67585;44.802;10.332;2023-04-06T12:07:00;4.78;;;1.73;;
78120;SDS011;67585;44.802;10.332;2023-04-06T12:09:26;4.50;;;1.33;;
78120;SDS011;67585;44.802;10.332;2023-04-06T12:11:51;4.75;;;1.77;;
78120;SDS011;67585;44.802;10.332;2023-04-06T12:14:17;5.40;;;1.63;;
78120;SDS011;67585;44.802;10.332;2023-04-06T12:16:42;6.90;;;1.10;;
78120;SDS011;67585;44.802;10.332;2023-04-06T12:19:08;6.60;;;1.85;;
78120;SDS011;67585;44.802;10.332;2023-04-06T12:21:34;5.65;;;2.83;;
78120;SDS011;67585;44.802;10.332;2023-04-06T12:24:02;4.95;;;2.17;;
78120;SDS011;67585;44.802;10.332;2023-04-06T12:26:29;5.28;;;1.98;;
78120;SDS011;67585;44.802;10.332;2023-04-06T12:28:55;11.48;;;2.15;;
78120;SDS011;67585;44.802;10.332;2023-04-06T12:31:21;5.15;;;1.63;;
78120;SDS011;67585;44.802;10.332;2023-04-06T12:33:50;7.13;;;1.98;;
78120;SDS011;67585;44.802;10.332;2023-04-06T12:36:19;7.38;;;1.83;;
78120;SDS011;67585;44.802;10.332;2023-04-06T12:38:49;7.25;;;2.47;;
78120;SDS011;67585;44.802;10.332;2023-04-06T12:41:18;8.40;;;2.13;;
78120;SDS011;67585;44.802;10.332;2023-04-06T12:43:44;5.32;;;1.45;;
78120;SDS011;67585;44.802;10.332;2023-04-06T12:46:10;4.93;;;1.60;;
78120;SDS011;67585;44.802;10.332;2023-04-06T12:48:37;5.53;;;1.52;;
78120;SDS011;67585;44.802;10.332;2023-04-06T12:51:05;5.45;;;1.77;;
78120;SDS011;67585;44.802;10.332;2023-04-06T12:53:31;7.15;;;2.28;;
78120;SDS011;67585;44.802;10.332;2023-04-06T12:55:58;5.45;;;1.80;;
78120;SDS011;67585;44.802;10.332;2023-04-06T12:58:24;6.45;;;2.75;;
78120;SDS011;67585;44.802;10.332;2023-04-06T13:00:54;4.20;;;1.73;;
78120;SDS011;67585;44.802;10.332;2023-04-06T13:03:21;6.80;;;2.10;;
78120;SDS011;67585;44.802;10.332;2023-04-06T13:05:47;6.35;;;1.85;;
78120;SDS011;67585;44.802;10.332;2023-04-06T13:08:14;5.88;;;2.60;;
78120;SDS011;67585;44.802;10.332;2023-04-06T13:10:50;6.13;;;3.05;;
78120;SDS011;67585;44.802;10.332;2023-04-06T13:13:27;4.00;;;1.67;;
78120;SDS011;67585;44.802;10.332;2023-04-06T13:15:54;6.85;;;2.30;;
78120;SDS011;67585;44.802;10.332;2023-04-06T13:20:46;4.80;;;1.55;;
78120;SDS011;67585;44.802;10.332;2023-04-06T13:23:12;5.55;;;1.85;;
78120;SDS011;67585;44.802;10.332;2023-04-06T13:25:38;8.38;;;2.70;;
78120;SDS011;67585;44.802;10.332;2023-04-06T13:28:04;7.20;;;2.42;;
78120;SDS011;67585;44.802;10.332;2023-04-06T13:30:29;8.27;;;2.10;;
78120;SDS011;67585;44.802;10.332;2023-04-06T13:32:55;5.95;;;2.22;;
78120;SDS011;67585;44.802;10.332;2023-04-06T13:35:20;6.03;;;2.80;;
78120;SDS011;67585;44.802;10.332;2023-04-06T13:37:46;6.28;;;1.13;;
78120;SDS011;67585;44.802;10.332;2023-04-06T13:40:11;6.93;;;1.88;;
78120;SDS011;67585;44.802;10.332;2023-04-06T13:42:37;5.30;;;1.60;;
78120;SDS011;67585;44.802;10.332;2023-04-06T13:45:06;7.88;;;1.83;;
78120;SDS011;67585;44.802;10.332;2023-04-06T13:47:32;6.93;;;2.88;;
78120;SDS011;67585;44.802;10.332;2023-04-06T13:49:58;6.75;;;1.75;;
78120;SDS011;67585;44.802;10.332;2023-04-06T13:52:23;6.40;;;2.25;;
78120;SDS011;67585;44.802;10.332;2023-04-06T13:54:49;5.07;;;1.85;;
78120;SDS011;67585;44.802;10.332;2023-04-06T13:57:15;7.20;;;2.38;;
78120;SDS011;67585;44.802;10.332;2023-04-06T13:59:40;7.43;;;2.38;;
78120;SDS011;67585;44.802;10.332;2023-04-06T14:02:07;6.55;;;1.90;;
78120;SDS011;67585;44.802;10.332;2023-04-06T14:04:33;6.55;;;2.03;;
78120;SDS011;67585;44.802;10.332;2023-04-06T14:07:00;5.18;;;1.65;;
78120;SDS011;67585;44.802;10.332;2023-04-06T14:11:52;4.07;;;1.23;;
78120;SDS011;67585;44.802;10.332;2023-04-06T14:14:20;5.65;;;2.03;;
78120;SDS011;67585;44.802;10.332;2023-04-06T14:16:46;6.57;;;1.63;;
78120;SDS011;67585;44.802;10.332;2023-04-06T14:19:15;6.25;;;1.73;;
78120;SDS011;67585;44.802;10.332;2023-04-06T14:21:42;6.38;;;2.03;;
78120;SDS011;67585;44.802;10.332;2023-04-06T14:24:08;6.72;;;2.22;;
78120;SDS011;67585;44.802;10.332;2023-04-06T14:26:34;5.88;;;3.05;;
78120;SDS011;67585;44.802;10.332;2023-04-06T14:29:00;3.58;;;1.08;;
78120;SDS011;67585;44.802;10.332;2023-04-06T14:31:26;4.28;;;1.77;;
78120;SDS011;67585;44.802;10.332;2023-04-06T14:33:52;7.03;;;1.15;;
78120;SDS011;67585;44.802;10.332;2023-04-06T14:36:17;6.00;;;2.25;;
78120;SDS011;67585;44.802;10.332;2023-04-06T14:38:43;6.65;;;1.67;;
78120;SDS011;67585;44.802;10.332;2023-04-06T14:41:18;6.03;;;1.33;;
78120;SDS011;67585;44.802;10.332;2023-04-06T14:43:45;4.78;;;1.33;;
78120;SDS011;67585;44.802;10.332;2023-04-06T14:46:11;5.15;;;1.52;;
78120;SDS011;67585;44.802;10.332;2023-04-06T14:48:37;3.78;;;1.27;;
78120;SDS011;67585;44.802;10.332;2023-04-06T14:51:02;5.97;;;1.80;;
78120;SDS011;67585;44.802;10.332;2023-04-06T14:53:28;5.30;;;1.38;;